Strona główna
METAR-TAF:

METAR-TAF

Lotnisko :

Laconia Municipal Airport

Laconia, New Hampshire, Stany Zjednoczone

Szerokość geograficzna: 43-34N, Długość geograficzna: 071-25W, wysokość: 166 m

Aktualna obserwacja pogody

Raport powstał 37 minut temu, godzina 01:56 UTC
Wiatr 5 kt od zachodnio-południowy zachód
Temperatura 9°C
Wilgotność 87%
Ciśnienie 1014 hPa
Widzialność: 16.1 km
Zachmurzenie całkowite na wysokości 4500 ft

METAR: KLCI 060156Z AUTO 24005KT 10SM OVC045 09/07 A2993 RMK AO2 SLP138 T00890067

czas: 22:33 (02:33 UTC)


TAF: brakujący

Obserwacja i prognoza pogody dla ponad 4000 lotnisk (raport METAR i TAF).

Dostępne stacje oznaczono żółtymi i czerwonymi punktami na mapie.

Najedź kursorem aby zobaczyć nazwę stacji.

Kliknij aby zobaczyć obserwacje i prognozy pogody.

Aby zmienić mapę: kliknij na zielony przycisk z czarnym krzyżykiem, aby powiększyć; na zielony przycisk z myślnikiem, aby pomniejszyć; na zielone strzałki, aby przejść do map sąsiednich.


METAR-TAF: